createdAt,value
2019-02-11T00:00:42.943Z,1.50
2019-02-11T00:03:12.141Z,1.50
2019-02-11T00:05:41.448Z,1.50
2019-02-11T00:08:11.580Z,1.50
2019-02-11T00:10:42.517Z,1.50
2019-02-11T00:13:11.775Z,1.40
2019-02-11T00:15:40.861Z,1.40
2019-02-11T00:18:10.247Z,1.40
2019-02-11T00:20:39.312Z,1.30
2019-02-11T00:23:08.804Z,1.30
2019-02-11T00:25:40.150Z,1.20
2019-02-11T00:28:09.817Z,1.20
2019-02-11T00:30:39.102Z,1.20
2019-02-11T00:33:08.240Z,1.10
2019-02-11T00:35:39.374Z,1.20
2019-02-11T00:38:08.749Z,1.10
2019-02-11T00:40:37.853Z,1.10
2019-02-11T00:43:06.998Z,1.10
2019-02-11T00:45:36.403Z,1.00
2019-02-11T00:48:07.120Z,1.00
2019-02-11T00:50:36.579Z,1.00
2019-02-11T00:53:06.047Z,1.00
2019-02-11T00:55:35.300Z,0.90
2019-02-11T00:58:04.423Z,0.90
2019-02-11T01:00:33.425Z,0.90
2019-02-11T01:03:02.526Z,0.90
2019-02-11T01:05:31.623Z,0.80
2019-02-11T01:08:01.014Z,0.80
2019-02-11T01:10:30.861Z,0.80
2019-02-11T01:13:00.010Z,0.70
2019-02-11T01:15:29.371Z,0.70
2019-02-11T01:17:58.420Z,0.70
2019-02-11T01:20:27.831Z,0.70
2019-02-11T01:22:57.165Z,0.60
2019-02-11T01:25:26.172Z,0.60
2019-02-11T01:27:55.267Z,0.60
2019-02-11T01:30:24.966Z,0.60
2019-02-11T01:32:54.068Z,0.60
2019-02-11T01:35:23.135Z,0.60
2019-02-11T01:37:52.164Z,0.60
2019-02-11T01:40:21.376Z,0.50
2019-02-11T01:42:50.571Z,0.50
2019-02-11T01:45:19.942Z,0.50
2019-02-11T01:47:49.024Z,0.50
2019-02-11T01:50:19.637Z,0.50
2019-02-11T01:52:48.940Z,0.50
2019-02-11T01:55:18.310Z,0.50
2019-02-11T01:57:47.352Z,0.50
2019-02-11T02:00:16.764Z,0.50
2019-02-11T02:02:45.890Z,0.50
2019-02-11T02:05:15.493Z,0.50
2019-02-11T02:07:44.618Z,0.50
2019-02-11T02:10:14.413Z,0.50
2019-02-11T02:12:43.866Z,0.50
2019-02-11T02:15:13.824Z,0.50
2019-02-11T02:17:43.039Z,0.50
2019-02-11T02:20:12.908Z,0.50
2019-02-11T02:22:41.975Z,0.60
2019-02-11T02:25:11.413Z,0.60
2019-02-11T02:27:40.449Z,0.60
2019-02-11T02:30:10.635Z,0.60
2019-02-11T02:32:40.306Z,0.60
2019-02-11T02:35:09.364Z,0.60
2019-02-11T02:37:38.602Z,0.60
2019-02-11T02:40:09.714Z,0.60
2019-02-11T02:42:40.188Z,0.60
2019-02-11T02:45:09.529Z,0.60
2019-02-11T02:47:38.648Z,0.60
2019-02-11T02:50:08.471Z,0.60
2019-02-11T02:52:37.786Z,0.60
2019-02-11T02:55:07.226Z,0.60
2019-02-11T02:57:36.274Z,0.60
2019-02-11T03:00:07.411Z,0.60
2019-02-11T03:02:36.544Z,0.60
2019-02-11T03:05:06.172Z,0.60
2019-02-11T03:07:35.606Z,0.60
2019-02-11T03:10:05.050Z,0.60
2019-02-11T03:12:34.078Z,0.60
2019-02-11T03:15:03.228Z,0.60
2019-02-11T03:17:32.602Z,0.60
2019-02-11T03:20:02.032Z,0.50
2019-02-11T03:22:31.144Z,0.50
2019-02-11T03:25:00.445Z,0.60
2019-02-11T03:27:29.398Z,0.60
2019-02-11T03:29:58.683Z,0.60
2019-02-11T03:32:28.552Z,0.60
2019-02-11T03:34:57.641Z,0.60
2019-02-11T03:37:27.065Z,0.50
2019-02-11T03:39:56.387Z,0.50
2019-02-11T03:42:25.430Z,0.50
2019-02-11T03:44:54.495Z,0.50
2019-02-11T03:47:23.544Z,0.50
2019-02-11T03:49:53.053Z,0.50
2019-02-11T03:52:22.108Z,0.50
2019-02-11T03:54:51.227Z,0.60
2019-02-11T03:57:22.485Z,0.50
2019-02-11T03:59:51.534Z,0.50
2019-02-11T04:02:20.847Z,0.50
2019-02-11T04:04:49.901Z,0.50
2019-02-11T04:07:19.014Z,0.50
2019-02-11T04:09:48.119Z,0.50
2019-02-11T04:12:17.112Z,0.50
2019-02-11T04:14:46.160Z,0.50
2019-02-11T04:17:15.199Z,0.50
2019-02-11T04:19:44.579Z,0.50
2019-02-11T04:22:13.652Z,0.50
2019-02-11T04:24:42.612Z,0.50
2019-02-11T04:27:12.158Z,0.50
2019-02-11T04:29:41.274Z,0.50
2019-02-11T04:32:12.367Z,0.50
2019-02-11T04:34:41.391Z,0.50
2019-02-11T04:37:10.492Z,0.50
2019-02-11T04:39:39.882Z,0.50
2019-02-11T04:42:09.202Z,0.50
2019-02-11T04:44:38.249Z,0.50
2019-02-11T04:47:09.928Z,0.50
2019-02-11T04:49:41.023Z,0.50
2019-02-11T04:52:10.439Z,0.50
2019-02-11T04:54:39.846Z,0.60
2019-02-11T04:57:09.172Z,0.50
2019-02-11T04:59:38.553Z,0.50
2019-02-11T05:02:07.837Z,0.50
2019-02-11T05:04:37.146Z,0.60
2019-02-11T05:07:07.475Z,0.60
2019-02-11T05:09:36.816Z,0.60
2019-02-11T05:12:05.860Z,0.60
2019-02-11T05:14:43.457Z,0.60
2019-02-11T05:17:08.002Z,0.60
2019-02-11T05:19:36.959Z,0.60
2019-02-11T05:22:06.247Z,0.60
2019-02-11T05:24:35.652Z,0.70
2019-02-11T05:27:05.007Z,0.70
2019-02-11T05:29:34.135Z,0.70
2019-02-11T05:32:04.680Z,0.70
2019-02-11T05:34:33.653Z,0.70
2019-02-11T05:37:03.357Z,0.70
2019-02-11T05:39:33.620Z,0.70
2019-02-11T05:42:02.903Z,0.80
2019-02-11T05:44:32.408Z,0.80
2019-02-11T05:47:02.581Z,0.80
2019-02-11T05:49:32.058Z,0.80
2019-02-11T05:52:01.311Z,0.80
2019-02-11T05:54:30.757Z,0.80
2019-02-11T05:57:00.415Z,0.80
2019-02-11T05:59:30.793Z,0.80
2019-02-11T06:01:59.899Z,0.80
2019-02-11T06:04:29.036Z,0.80
2019-02-11T06:06:58.107Z,0.80
2019-02-11T06:09:27.218Z,0.80
2019-02-11T06:11:56.479Z,0.80
2019-02-11T06:14:25.776Z,0.80
2019-02-11T06:16:54.803Z,0.90
2019-02-11T06:19:24.050Z,0.90
2019-02-11T06:21:53.396Z,0.90
2019-02-11T06:24:22.856Z,0.90
2019-02-11T06:26:52.255Z,0.90
2019-02-11T06:29:21.478Z,0.90
2019-02-11T06:31:51.339Z,0.90
2019-02-11T06:34:22.761Z,0.90
2019-02-11T06:36:52.066Z,1.00
2019-02-11T06:39:21.420Z,0.90
2019-02-11T06:41:53.018Z,1.00
2019-02-11T06:44:22.228Z,1.00
2019-02-11T06:46:51.492Z,1.00
2019-02-11T06:49:21.774Z,1.00
2019-02-11T06:51:50.996Z,1.00
2019-02-11T06:54:21.588Z,1.10
2019-02-11T06:56:52.223Z,1.10
2019-02-11T06:59:21.459Z,1.10
2019-02-11T07:01:51.585Z,1.10
2019-02-11T07:04:20.891Z,1.10
2019-02-11T07:06:49.967Z,1.10
2019-02-11T07:09:20.146Z,1.10
2019-02-11T07:11:49.379Z,1.20
2019-02-11T07:14:18.782Z,1.20
2019-02-11T07:16:48.831Z,1.20
2019-02-11T07:19:17.868Z,1.20
2019-02-11T07:21:46.995Z,1.20
2019-02-11T07:24:16.672Z,1.20
2019-02-11T07:26:45.807Z,1.20
2019-02-11T07:29:15.172Z,1.20
2019-02-11T07:31:44.274Z,1.20
2019-02-11T07:34:13.815Z,1.20
2019-02-11T07:36:42.865Z,1.20
2019-02-11T07:39:13.718Z,1.20
2019-02-11T07:42:04.914Z,1.20
2019-02-11T07:44:43.853Z,1.20
2019-02-11T07:47:13.695Z,1.20
2019-02-11T07:49:43.139Z,1.20
2019-02-11T07:52:15.203Z,1.30
2019-02-11T07:54:44.320Z,1.30
2019-02-11T07:57:14.356Z,1.30
2019-02-11T07:59:43.726Z,1.30
2019-02-11T08:02:12.879Z,1.30
2019-02-11T08:04:42.224Z,1.30
2019-02-11T08:07:11.387Z,1.30
2019-02-11T08:09:40.440Z,1.30
2019-02-11T08:12:10.332Z,1.30
2019-02-11T08:14:39.807Z,1.30
2019-02-11T08:17:08.865Z,1.30
2019-02-11T08:19:38.228Z,1.30
2019-02-11T08:22:07.536Z,1.30
2019-02-11T08:24:38.087Z,1.30
2019-02-11T08:27:08.983Z,1.40
2019-02-11T08:29:38.199Z,1.40
2019-02-11T08:32:07.296Z,1.40
2019-02-11T08:34:38.170Z,1.40
2019-02-11T08:37:07.354Z,1.40
2019-02-11T08:39:38.785Z,1.40
2019-02-11T08:42:08.166Z,1.40
2019-02-11T08:44:37.225Z,1.40
2019-02-11T08:47:06.605Z,1.40
2019-02-11T08:49:35.624Z,1.40
2019-02-11T08:52:05.404Z,1.40
2019-02-11T08:54:35.450Z,1.40
2019-02-11T08:57:04.798Z,1.40
2019-02-11T08:59:33.829Z,1.40
2019-02-11T09:02:06.210Z,1.40
2019-02-11T09:04:35.385Z,1.40
2019-02-11T09:07:07.552Z,1.40
2019-02-11T09:09:36.968Z,1.40
2019-02-11T09:12:06.262Z,1.40
2019-02-11T09:14:35.508Z,1.40
2019-02-11T09:17:10.254Z,1.40
2019-02-11T09:19:40.188Z,1.40
2019-02-11T09:22:09.414Z,1.40
2019-02-11T09:24:38.557Z,1.50
2019-02-11T09:27:08.172Z,1.50
2019-02-11T09:29:41.559Z,1.40
2019-02-11T09:32:08.018Z,1.40
2019-02-11T09:34:37.042Z,1.40
2019-02-11T09:37:06.348Z,1.40
2019-02-11T09:39:35.608Z,1.40
2019-02-11T09:42:05.519Z,1.50
2019-02-11T09:44:34.579Z,1.50
2019-02-11T09:47:03.810Z,1.50
2019-02-11T09:49:32.855Z,1.60
2019-02-11T09:52:01.918Z,1.70
2019-02-11T09:54:31.047Z,1.70
2019-02-11T09:57:00.403Z,1.70
2019-02-11T09:59:29.488Z,1.60
2019-02-11T10:01:58.609Z,1.60
2019-02-11T10:04:27.721Z,1.70
2019-02-11T10:06:56.844Z,1.70
2019-02-11T10:09:25.877Z,1.80
2019-02-11T10:11:54.949Z,1.90
2019-02-11T10:14:24.076Z,1.90
2019-02-11T10:16:53.259Z,2.00
2019-02-11T10:19:22.432Z,2.10
2019-02-11T10:21:51.519Z,2.30
2019-02-11T10:24:20.662Z,2.20
2019-02-11T10:26:49.831Z,2.30
2019-02-11T10:29:18.922Z,2.30
2019-02-11T10:31:50.759Z,2.30
2019-02-11T10:34:20.998Z,2.20
2019-02-11T10:36:50.426Z,2.20
2019-02-11T10:39:19.482Z,1.90
2019-02-11T10:41:50.624Z,1.90
2019-02-11T10:44:22.434Z,1.90
2019-02-11T10:46:51.543Z,2.10
2019-02-11T10:49:21.345Z,2.20
2019-02-11T10:51:50.758Z,2.30
2019-02-11T10:54:19.941Z,2.30
2019-02-11T10:56:49.014Z,2.50
2019-02-11T10:59:18.211Z,2.60
2019-02-11T11:01:47.359Z,2.60
2019-02-11T11:04:16.979Z,2.60
2019-02-11T11:06:49.082Z,2.60
2019-02-11T11:09:17.778Z,2.60
2019-02-11T11:11:48.243Z,2.60
2019-02-11T11:14:17.350Z,2.60
2019-02-11T11:16:46.687Z,2.70
2019-02-11T11:19:17.795Z,2.80
2019-02-11T11:21:49.160Z,2.90
2019-02-11T11:24:25.103Z,3.00
2019-02-11T11:26:55.731Z,3.00
2019-02-11T11:29:24.793Z,2.90
2019-02-11T11:31:54.133Z,2.90
2019-02-11T11:34:26.147Z,2.80
2019-02-11T11:36:58.587Z,2.90
2019-02-11T11:39:28.208Z,2.90
2019-02-11T11:41:57.420Z,3.00
2019-02-11T11:44:29.206Z,3.00
2019-02-11T11:46:58.290Z,3.00
2019-02-11T11:49:28.616Z,3.00
2019-02-11T11:51:57.552Z,3.00
2019-02-11T11:54:26.705Z,3.00
2019-02-11T11:56:59.231Z,3.00
2019-02-11T11:59:26.814Z,3.00
2019-02-11T12:01:55.862Z,3.00
2019-02-11T12:04:25.256Z,3.00
2019-02-11T12:06:54.621Z,3.00
2019-02-11T12:09:23.701Z,3.00
2019-02-11T12:11:52.786Z,3.00
2019-02-11T12:14:24.528Z,3.00
2019-02-11T12:16:59.542Z,3.10
2019-02-11T12:19:25.455Z,3.20
2019-02-11T12:21:54.587Z,3.20
2019-02-11T12:24:23.976Z,3.20
2019-02-11T12:26:53.668Z,3.30
2019-02-11T12:29:22.705Z,3.30
2019-02-11T12:31:51.890Z,3.30
2019-02-11T12:34:21.160Z,3.30
2019-02-11T12:36:53.174Z,3.30
2019-02-11T12:39:22.605Z,3.30
2019-02-11T12:41:51.817Z,3.30
2019-02-11T12:44:20.956Z,3.40
2019-02-11T12:46:50.169Z,3.40
2019-02-11T12:49:19.315Z,3.30
2019-02-11T12:51:48.632Z,3.20
2019-02-11T12:54:17.770Z,3.20
2019-02-11T12:56:47.169Z,3.20
2019-02-11T12:59:16.225Z,3.20
2019-02-11T13:01:46.950Z,3.20
2019-02-11T13:04:16.059Z,3.20
2019-02-11T13:06:45.446Z,3.20
2019-02-11T13:09:14.609Z,3.30
2019-02-11T13:11:43.859Z,3.30
2019-02-11T13:14:13.136Z,3.30
2019-02-11T13:16:42.275Z,3.40
2019-02-11T13:19:13.481Z,3.40
2019-02-11T13:21:42.725Z,3.40
2019-02-11T13:24:14.175Z,3.30
2019-02-11T13:26:44.929Z,3.30
2019-02-11T13:29:14.026Z,3.30
2019-02-11T13:31:43.164Z,3.30
2019-02-11T13:34:13.171Z,3.30
2019-02-11T13:36:43.818Z,3.20
2019-02-11T13:39:14.604Z,3.30
2019-02-11T13:41:45.953Z,3.30
2019-02-11T13:44:16.152Z,3.30
2019-02-11T13:46:45.883Z,3.20
2019-02-11T13:49:16.859Z,3.20
2019-02-11T13:51:46.606Z,3.20
2019-02-11T13:54:16.339Z,3.20
2019-02-11T13:56:46.471Z,3.20
2019-02-11T13:59:16.357Z,3.20
2019-02-11T14:01:46.679Z,3.20
2019-02-11T14:04:16.924Z,3.20
2019-02-11T14:06:46.694Z,3.30
2019-02-11T14:09:18.115Z,3.20
2019-02-11T14:11:48.102Z,3.20
2019-02-11T14:14:18.886Z,3.10
2019-02-11T14:16:48.343Z,3.10
2019-02-11T14:19:17.573Z,3.10
2019-02-11T14:21:46.758Z,3.10
2019-02-11T14:24:16.314Z,3.10
2019-02-11T14:26:46.137Z,3.00
2019-02-11T14:29:15.734Z,3.00
2019-02-11T14:31:44.975Z,3.00
2019-02-11T14:34:14.183Z,3.00
2019-02-11T14:36:44.030Z,3.00
2019-02-11T14:39:14.736Z,3.00
2019-02-11T14:41:44.222Z,3.00
2019-02-11T14:44:14.201Z,3.10
2019-02-11T14:46:43.521Z,3.00
2019-02-11T14:49:12.838Z,3.10
2019-02-11T14:51:42.149Z,3.10
2019-02-11T14:54:11.178Z,3.10
2019-02-11T14:56:40.175Z,3.10
2019-02-11T14:59:09.223Z,3.00
2019-02-11T15:01:38.317Z,3.00
2019-02-11T15:04:07.446Z,3.00
2019-02-11T15:06:36.659Z,2.90
2019-02-11T15:09:06.736Z,2.90
2019-02-11T15:11:35.786Z,2.90
2019-02-11T15:14:04.827Z,2.80
2019-02-11T15:16:33.936Z,2.80
2019-02-11T15:19:03.032Z,2.80
2019-02-11T15:21:32.728Z,2.70
2019-02-11T15:24:02.382Z,2.70
2019-02-11T15:26:31.966Z,2.60
2019-02-11T15:29:01.241Z,2.60
2019-02-11T15:31:30.401Z,2.60
2019-02-11T15:33:59.630Z,2.60
2019-02-11T15:36:29.041Z,2.60
2019-02-11T15:38:58.533Z,2.60
2019-02-11T15:41:29.069Z,2.60
2019-02-11T15:43:58.321Z,2.60
2019-02-11T15:46:28.527Z,2.60
2019-02-11T15:48:57.838Z,2.60
2019-02-11T15:51:27.288Z,2.60
2019-02-11T15:53:56.857Z,2.60
2019-02-11T15:56:26.964Z,2.60
2019-02-11T15:58:56.573Z,2.60
2019-02-11T16:01:26.664Z,2.60
2019-02-11T16:03:59.857Z,2.60
2019-02-11T16:06:37.644Z,2.60
2019-02-11T16:09:04.491Z,2.60
2019-02-11T16:11:32.194Z,2.60
2019-02-11T16:14:01.685Z,2.50
2019-02-11T16:16:30.936Z,2.50
2019-02-11T16:19:00.362Z,2.50
2019-02-11T16:21:29.438Z,2.50
2019-02-11T16:23:58.535Z,2.40
2019-02-11T16:26:29.045Z,2.40
2019-02-11T16:28:58.569Z,2.50
2019-02-11T16:31:27.905Z,2.40
2019-02-11T16:33:58.915Z,2.40
2019-02-11T16:36:28.702Z,2.40
2019-02-11T16:38:59.321Z,2.40
2019-02-11T16:41:31.030Z,2.40
2019-02-11T16:44:00.442Z,2.40
2019-02-11T16:46:30.792Z,2.40
2019-02-11T16:49:00.793Z,2.40
2019-02-11T16:51:30.530Z,2.40
2019-02-11T16:53:59.936Z,2.40
2019-02-11T16:56:29.388Z,2.40
2019-02-11T16:58:58.566Z,2.30
2019-02-11T17:01:27.824Z,2.30
2019-02-11T17:03:56.912Z,2.30
2019-02-11T17:06:25.965Z,2.40
2019-02-11T17:08:55.480Z,2.30
2019-02-11T17:11:24.703Z,2.30
2019-02-11T17:13:54.406Z,2.30
2019-02-11T17:16:25.074Z,2.30
2019-02-11T17:18:54.318Z,2.30
2019-02-11T17:21:23.359Z,2.30
2019-02-11T17:23:52.534Z,2.30
2019-02-11T17:26:22.846Z,2.20
2019-02-11T17:28:54.252Z,2.20
2019-02-11T17:31:23.977Z,2.20
2019-02-11T17:33:53.407Z,2.20
2019-02-11T17:36:22.515Z,2.10
2019-02-11T17:38:52.247Z,2.00
2019-02-11T17:41:22.156Z,2.00
2019-02-11T17:43:53.967Z,2.00
2019-02-11T17:46:23.362Z,2.00
2019-02-11T17:48:55.847Z,1.90
2019-02-11T17:51:24.950Z,1.90
2019-02-11T17:53:54.372Z,1.70
2019-02-11T17:56:23.646Z,1.70
2019-02-11T17:58:53.344Z,1.60
2019-02-11T18:01:24.069Z,1.60
2019-02-11T18:03:53.224Z,1.50
2019-02-11T18:06:22.342Z,1.50
2019-02-11T18:08:51.610Z,1.60
2019-02-11T18:11:20.705Z,1.50
2019-02-11T18:13:49.810Z,1.60
2019-02-11T18:16:19.268Z,1.50
2019-02-11T18:18:48.504Z,1.50
2019-02-11T18:21:17.675Z,1.50
2019-02-11T18:23:47.768Z,1.60
2019-02-11T18:26:16.844Z,1.50
2019-02-11T18:28:45.951Z,1.50
2019-02-11T18:31:15.311Z,1.40
2019-02-11T18:33:44.636Z,1.40
2019-02-11T18:36:14.025Z,1.30
2019-02-11T18:38:43.063Z,1.30
2019-02-11T18:41:15.511Z,1.30
2019-02-11T18:43:45.130Z,1.30
2019-02-11T18:46:16.844Z,1.30
2019-02-11T18:48:46.433Z,1.30
2019-02-11T18:51:15.794Z,1.30
2019-02-11T18:53:45.123Z,1.20
2019-02-11T18:56:14.954Z,1.20
2019-02-11T18:58:45.453Z,1.20
2019-02-11T19:01:15.181Z,1.30
2019-02-11T19:03:44.199Z,1.30
2019-02-11T19:06:13.400Z,1.30
2019-02-11T19:08:42.499Z,1.30
2019-02-11T19:11:11.935Z,1.30
2019-02-11T19:13:40.925Z,1.20
2019-02-11T19:16:10.260Z,1.30
2019-02-11T19:18:40.659Z,1.20
2019-02-11T19:21:10.532Z,1.10
2019-02-11T19:23:39.612Z,1.10
2019-02-11T19:26:08.701Z,1.10
2019-02-11T19:28:38.124Z,1.10
2019-02-11T19:31:07.448Z,1.00
2019-02-11T19:33:36.757Z,1.00
2019-02-11T19:36:06.124Z,1.00
2019-02-11T19:38:36.257Z,1.00
2019-02-11T19:41:06.131Z,1.00
2019-02-11T19:43:35.499Z,1.10
2019-02-11T19:46:05.958Z,1.10
2019-02-11T19:48:35.624Z,1.10
2019-02-11T19:51:05.460Z,1.10
2019-02-11T19:53:34.486Z,1.10
2019-02-11T19:56:04.002Z,1.10
2019-02-11T19:58:33.290Z,1.10
2019-02-11T20:01:02.461Z,1.10
2019-02-11T20:03:31.471Z,1.10
2019-02-11T20:06:00.648Z,1.10
2019-02-11T20:08:30.716Z,1.10
2019-02-11T20:11:00.125Z,1.10
2019-02-11T20:13:29.159Z,1.10
2019-02-11T20:15:58.523Z,1.10
2019-02-11T20:18:27.630Z,1.10
2019-02-11T20:20:57.152Z,1.10
2019-02-11T20:23:26.332Z,1.10
2019-02-11T20:25:57.129Z,1.10
2019-02-11T20:28:27.083Z,1.00
2019-02-11T20:30:56.898Z,1.00
2019-02-11T20:33:26.800Z,1.00
2019-02-11T20:35:56.540Z,0.90
2019-02-11T20:38:26.096Z,0.80
2019-02-11T20:40:55.410Z,0.70
2019-02-11T20:43:25.204Z,0.70
2019-02-11T20:45:54.361Z,0.60
2019-02-11T20:48:23.723Z,0.60
2019-02-11T20:50:53.392Z,0.50
2019-02-11T20:53:22.452Z,0.40
2019-02-11T20:55:51.672Z,0.40
2019-02-11T20:58:21.131Z,0.40
2019-02-11T21:00:50.737Z,0.40
2019-02-11T21:03:19.836Z,0.40
2019-02-11T21:05:51.180Z,0.40
2019-02-11T21:08:20.695Z,0.30
2019-02-11T21:10:51.380Z,0.30
2019-02-11T21:13:20.488Z,0.30
2019-02-11T21:15:49.456Z,0.40
2019-02-11T21:18:18.421Z,0.30
2019-02-11T21:20:47.803Z,0.30
2019-02-11T21:23:17.114Z,0.30
2019-02-11T21:25:46.471Z,0.30
2019-02-11T21:28:15.502Z,0.20
2019-02-11T21:30:45.120Z,0.20
2019-02-11T21:33:14.739Z,0.20
2019-02-11T21:35:43.786Z,0.20
2019-02-11T21:38:12.831Z,0.20
2019-02-11T21:40:42.151Z,0.20
2019-02-11T21:43:11.265Z,0.10
2019-02-11T21:45:42.389Z,0.10
2019-02-11T21:48:12.064Z,0.10
2019-02-11T21:50:41.110Z,0.10
2019-02-11T21:53:10.482Z,0.10
2019-02-11T21:55:39.494Z,0.10
2019-02-11T21:58:08.517Z,0.20
2019-02-11T22:00:37.959Z,0.20
2019-02-11T22:03:09.372Z,0.20
2019-02-11T22:05:38.393Z,0.20
2019-02-11T22:08:07.700Z,0.30
2019-02-11T22:10:36.774Z,0.30
2019-02-11T22:13:05.999Z,0.30
2019-02-11T22:15:35.331Z,0.40
2019-02-11T22:18:04.695Z,0.40
2019-02-11T22:20:36.490Z,0.40
2019-02-11T22:23:08.232Z,0.40
2019-02-11T22:25:37.295Z,0.40
2019-02-11T22:28:07.740Z,0.40
2019-02-11T22:30:37.516Z,0.40
2019-02-11T22:33:07.573Z,0.40
2019-02-11T22:35:36.798Z,0.40
2019-02-11T22:38:05.896Z,0.40
2019-02-11T22:40:35.547Z,0.30
2019-02-11T22:43:04.818Z,0.30
2019-02-11T22:45:34.475Z,0.30
2019-02-11T22:48:04.592Z,0.30
2019-02-11T22:50:33.649Z,0.20
2019-02-11T22:53:03.230Z,0.20
2019-02-11T22:55:32.278Z,0.10
2019-02-11T22:58:01.618Z,0.10
2019-02-11T23:00:43.973Z,0.10
2019-02-11T23:03:13.514Z,0.00
2019-02-11T23:05:43.398Z,0.00
2019-02-11T23:08:12.560Z,-0.10
2019-02-11T23:10:41.875Z,0.00
2019-02-11T23:13:11.017Z,0.00
2019-02-11T23:15:40.408Z,-0.10
2019-02-11T23:18:09.778Z,-0.10
2019-02-11T23:20:38.908Z,-0.20
2019-02-11T23:23:08.032Z,-0.20
2019-02-11T23:25:39.618Z,-0.20
2019-02-11T23:28:08.998Z,-0.20
2019-02-11T23:30:38.006Z,-0.20
2019-02-11T23:33:07.054Z,-0.20
2019-02-11T23:35:38.907Z,-0.20
2019-02-11T23:38:07.982Z,-0.10
2019-02-11T23:40:36.855Z,-0.10
2019-02-11T23:43:05.899Z,-0.20
2019-02-11T23:45:34.988Z,-0.20
2019-02-11T23:48:04.043Z,-0.10
2019-02-11T23:50:33.687Z,-0.10
2019-02-11T23:53:03.349Z,-0.10
2019-02-11T23:55:32.384Z,-0.10
2019-02-11T23:58:01.322Z,-0.10
